»·PEaware :: SKW6270 KLAX-KTUS

SKW6270 :: KLAX-KTUS

FLIGHT INFORMATION

Flight Status: Arrived
Operator:
SkyWest Airlines
More flights by this operator :: More flights under this callsign
Pilot: Anonymous 17337 (17337)
Aircraft: EMBRAER EMB-170/175
(E170)
More flights by this aircraft type
Origin: KLAX Los Angeles Intl
United States
Destination: KTUS Tucson Intl
United States
More flights between these airports :: More routes between these airports
Route: DOTSS2 CNERY BLH J50 GBN DINGO5
File this flight plan on PilotEdge
Remarks: RMK / SIMBRIEF
Altitude:
(Current/Filed)
35,000ft
Speed:
(Current/Filed)
431kts
Departed: 21-Oct-22 02:18 PM
Arrived: 21-Oct-22 03:23 PM
Distance/Time
Traveled:
391nm/1:05
Distance/Time
To Go:
Arrived

Flight Plot

Page will automatically refresh every two minutes.

Flight plan parsing failed; only flown route is shown


Map Options




Map Legend


Flown Route
Filed Route
Departure Airport
Arrival Airport
Navaid (VOR, NDB)
Fix

Horizontal Profiles

Position Reports

Time Latitude Longitude Heading Altitude Ground
Speed
21-Oct-22 13:45 33.941459 -118.393232 315 137ft 0kts
21-Oct-22 13:46 33.941459 -118.393232 315 137ft 0kts
21-Oct-22 13:47 33.941459 -118.393232 315 137ft 0kts
21-Oct-22 13:48 33.941459 -118.393232 315 137ft 0kts
21-Oct-22 13:49 33.941459 -118.393232 315 137ft 0kts
21-Oct-22 13:50 33.941459 -118.393232 315 137ft 0kts
21-Oct-22 13:51 33.941459 -118.393232 315 137ft 0kts
21-Oct-22 13:52 33.941459 -118.393232 315 137ft 0kts
21-Oct-22 13:53 33.941459 -118.393232 315 137ft 0kts
21-Oct-22 13:54 33.941459 -118.393232 315 137ft 0kts
21-Oct-22 13:55 33.941459 -118.393232 315 137ft 0kts
21-Oct-22 13:56 33.941459 -118.393232 315 137ft 0kts
21-Oct-22 13:57 33.941459 -118.393232 315 137ft 0kts
21-Oct-22 13:58 33.941459 -118.393232 315 137ft 0kts
21-Oct-22 13:59 33.941459 -118.393232 315 137ft 0kts
21-Oct-22 14:00 33.941459 -118.393232 315 137ft 0kts
21-Oct-22 14:01 33.941459 -118.393232 315 137ft 0kts
21-Oct-22 14:02 33.941459 -118.393232 315 137ft 0kts
21-Oct-22 14:03 33.941459 -118.393232 315 137ft 0kts
21-Oct-22 14:04 33.941459 -118.393232 315 137ft 0kts
21-Oct-22 14:05 33.941459 -118.393232 315 137ft 0kts
21-Oct-22 14:06 33.941459 -118.393232 315 137ft 0kts
21-Oct-22 14:07 33.941459 -118.393232 315 137ft 0kts
21-Oct-22 14:08 33.941459 -118.393232 315 137ft 0kts
21-Oct-22 14:09 33.941139 -118.392690 285 137ft 2kts
21-Oct-22 14:10 33.941508 -118.392315 178 137ft 2kts
21-Oct-22 14:11 33.941516 -118.392315 178 137ft 0kts
21-Oct-22 14:12 33.941508 -118.392315 178 137ft 0kts
21-Oct-22 14:13 33.941334 -118.392307 177 137ft 3kts
21-Oct-22 14:14 33.939908 -118.389495 82 137ft 21kts
21-Oct-22 14:15 33.940642 -118.381947 80 137ft 21kts
21-Oct-22 14:16 33.939852 -118.380748 267 137ft 3kts
21-Oct-22 14:17 33.937102 -118.407204 261 388ft 183kts
21-Oct-22 14:18 33.927448 -118.474134 242 2765ft 228kts
21-Oct-22 14:19 33.879702 -118.535825 226 6389ft 261kts
21-Oct-22 14:20 33.811556 -118.554819 165 10227ft 282kts
21-Oct-22 14:21 33.726714 -118.528420 166 12369ft 349kts
21-Oct-22 14:22 33.667770 -118.446438 96 15589ft 356kts
21-Oct-22 14:23 33.643156 -118.328522 100 17928ft 384kts
21-Oct-22 14:24 33.643391 -118.195759 91 20119ft 407kts
21-Oct-22 14:25 33.644079 -118.056850 92 22069ft 428kts
21-Oct-22 14:26 33.644157 -117.910632 93 23861ft 448kts
21-Oct-22 14:27 33.639642 -117.759345 108 25491ft 456kts
21-Oct-22 14:28 33.602600 -117.613558 114 27314ft 457kts
21-Oct-22 14:29 33.564537 -117.468493 115 29234ft 457kts
21-Oct-22 14:30 33.527476 -117.322775 115 30906ft 457kts
21-Oct-22 14:31 33.502276 -117.172258 94 32336ft 478kts
21-Oct-22 14:33 33.501775 -117.013966 97 33552ft 478kts
21-Oct-22 14:34 33.499510 -116.854200 97 34668ft 481kts
21-Oct-22 14:35 33.496899 -116.692684 97 34918ft 491kts
21-Oct-22 14:36 33.493919 -116.525587 96 34903ft 512kts
21-Oct-22 14:37 33.490923 -116.352382 95 34848ft 525kts
21-Oct-22 14:38 33.488253 -116.178210 95 34833ft 525kts
21-Oct-22 14:39 33.491224 -116.002514 76 34827ft 533kts
21-Oct-22 14:40 33.541682 -115.834637 70 34836ft 538kts
21-Oct-22 14:41 33.592939 -115.666037 71 34841ft 537kts
21-Oct-22 14:42 33.632283 -115.494681 95 34845ft 526kts
21-Oct-22 14:43 33.619523 -115.321013 100 34849ft 524kts
21-Oct-22 14:44 33.608954 -115.146529 98 34853ft 526kts
21-Oct-22 14:45 33.602570 -114.971545 96 34859ft 526kts
21-Oct-22 14:46 33.597208 -114.795548 96 34862ft 527kts
21-Oct-22 14:47 33.584998 -114.621365 101 34862ft 524kts
21-Oct-22 14:48 33.568602 -114.448022 101 34863ft 524kts
21-Oct-22 14:49 33.552422 -114.274469 100 34869ft 523kts
21-Oct-22 14:50 33.536243 -114.100882 100 34875ft 524kts
21-Oct-22 14:51 33.519896 -113.927367 100 34874ft 525kts
21-Oct-22 14:52 33.503261 -113.753888 100 34874ft 525kts
21-Oct-22 14:53 33.486357 -113.580470 100 34874ft 525kts
21-Oct-22 14:54 33.469134 -113.406424 101 34875ft 527kts
21-Oct-22 14:55 33.406898 -113.259216 140 34885ft 488kts
21-Oct-22 14:56 33.313296 -113.142045 142 34887ft 489kts
21-Oct-22 14:57 33.220569 -113.022881 140 34891ft 490kts
21-Oct-22 14:58 33.128655 -112.902132 140 34891ft 490kts
21-Oct-22 14:58 33.052292 -112.801422 140 34885ft 492kts
21-Oct-22 15:00 32.947365 -112.658148 127 32784ft 494kts
21-Oct-22 15:01 32.891288 -112.510305 119 30233ft 486kts
21-Oct-22 15:02 32.836520 -112.364928 119 27683ft 473kts
21-Oct-22 15:02 32.791862 -112.248532 119 25627ft 456kts
21-Oct-22 15:03 32.740104 -112.114919 119 23264ft 436kts
21-Oct-22 15:04 32.690181 -111.986881 118 20985ft 421kts
21-Oct-22 15:06 32.633398 -111.841934 118 18414ft 406kts
21-Oct-22 15:07 32.586646 -111.723034 118 16330ft 392kts
21-Oct-22 15:07 32.548173 -111.627481 124 14626ft 378kts
21-Oct-22 15:08 32.486487 -111.530269 130 13132ft 364kts
21-Oct-22 15:09 32.421738 -111.439325 135 11405ft 351kts
21-Oct-22 15:10 32.358243 -111.357847 135 9219ft 322kts
21-Oct-22 15:12 32.293220 -111.278228 135 7441ft 274kts
21-Oct-22 15:12 32.249169 -111.224698 135 7047ft 271kts
21-Oct-22 15:13 32.196408 -111.160605 135 7000ft 270kts
21-Oct-22 15:14 32.144030 -111.096903 135 6506ft 269kts
21-Oct-22 15:15 32.095188 -111.037573 135 6025ft 229kts
21-Oct-22 15:16 32.053931 -110.986997 135 6022ft 204kts
21-Oct-22 15:17 32.015017 -110.939097 135 6057ft 197kts
21-Oct-22 15:18 31.993300 -110.886160 60 5290ft 197kts
21-Oct-22 15:19 32.036268 -110.856174 358 5130ft 191kts
21-Oct-22 15:20 32.072853 -110.889149 311 3472ft 160kts
21-Oct-22 15:21 32.103059 -110.924114 313 2663ft 134kts
21-Oct-22 15:22 32.116311 -110.939490 328 2654ft 19kts
21-Oct-22 15:23 32.119528 -110.941849 314 2654ft 18kts
21-Oct-22 15:24 32.121761 -110.942318 117 2654ft 9kts
21-Oct-22 15:25 32.121571 -110.941750 108 2654ft 0kts
21-Oct-22 15:26 32.121571 -110.941750 108 2654ft 0kts
21-Oct-22 15:27 32.121571 -110.941750 108 2654ft 0kts
21-Oct-22 15:28 32.121571 -110.941750 108 2654ft 0kts

Navigation Log

Ident Type
Flight plan parsing failed, navigation log unavailable